»·PEaware :: N1399 KRNO-KPVF

N1399 :: KRNO-KPVF

FLIGHT INFORMATION

Flight Status: Arrived
Operator: Privately registered:
United States
More flights under this callsign
Pilot: David C. (16084)
Aircraft: PIPER PA-31/31P NAVAJO CHIEFTAIN
(PA31)
More flights by this aircraft type
Origin: KRNO Reno/Tahoe Intl
United States
Destination: KPVF Placerville
United States
More flights between these airports :: More routes between these airports
Route: RENO9 SWR V338 HNW
File this flight plan on PilotEdge
Remarks:
Altitude:
(Current/Filed)
12,000ft
Speed:
(Current/Filed)
276kts
Departed: 22-Jan-18 11:46 AM
Arrived: 22-Jan-18 12:30 PM
Distance/Time
Traveled:
65nm/0:44
Distance/Time
To Go:
Arrived

Flight Plot

Page will automatically refresh every two minutes.

Flight plan parsing failed; only flown route is shown


Map Options




Map Legend


Flown Route
Filed Route
Departure Airport
Arrival Airport
Navaid (VOR, NDB)
Fix

Horizontal Profiles

Position Reports

Time Latitude Longitude Heading Altitude Ground
Speed
22-Jan-18 11:35 39.506248 -119.765238 90 4419ft 0kts
22-Jan-18 11:36 39.506248 -119.765238 90 4419ft 0kts
22-Jan-18 11:37 39.506248 -119.765238 90 4419ft 0kts
22-Jan-18 11:38 39.506248 -119.765238 90 4419ft 0kts
22-Jan-18 11:39 39.506248 -119.765238 90 4419ft 0kts
22-Jan-18 11:40 39.506248 -119.765238 90 4419ft 0kts
22-Jan-18 11:41 39.506248 -119.765238 90 4419ft 0kts
22-Jan-18 11:42 39.506248 -119.765238 90 4419ft 0kts
22-Jan-18 11:43 39.506248 -119.765238 90 4419ft 0kts
22-Jan-18 11:44 39.506248 -119.765238 90 4419ft 0kts
22-Jan-18 11:45 39.506248 -119.765238 90 4419ft 0kts
22-Jan-18 11:46 39.506248 -119.765238 90 4419ft 0kts
22-Jan-18 11:47 39.506446 -119.764960 352 4419ft 0kts
22-Jan-18 11:48 39.508027 -119.765761 1 4419ft 14kts
22-Jan-18 11:49 39.512052 -119.765160 359 4419ft 19kts
22-Jan-18 11:50 39.513707 -119.765697 263 4419ft 0kts
22-Jan-18 11:51 39.513527 -119.766600 210 4419ft 9kts
22-Jan-18 11:52 39.493584 -119.766978 177 5199ft 123kts
22-Jan-18 11:53 39.461770 -119.765021 176 7072ft 119kts
22-Jan-18 11:54 39.429693 -119.762993 176 8837ft 122kts
22-Jan-18 11:55 39.396734 -119.760910 176 10523ft 126kts
22-Jan-18 11:56 39.365994 -119.776621 213 12008ft 136kts
22-Jan-18 11:57 39.342376 -119.818727 246 12014ft 162kts
22-Jan-18 11:58 39.323832 -119.870526 246 12016ft 165kts
22-Jan-18 11:59 39.305470 -119.921838 246 12015ft 165kts
22-Jan-18 12:00 39.287158 -119.972947 246 12017ft 165kts
22-Jan-18 12:01 39.269018 -120.023522 246 12017ft 165kts
22-Jan-18 12:02 39.250930 -120.073870 246 12020ft 165kts
22-Jan-18 12:03 39.232928 -120.123868 246 12007ft 165kts
22-Jan-18 12:04 39.217910 -120.165520 246 12007ft 165kts
22-Jan-18 12:05 39.199840 -120.215567 246 12006ft 165kts
22-Jan-18 12:06 39.176843 -120.272679 226 12010ft 168kts
22-Jan-18 12:07 39.142839 -120.309163 225 12007ft 169kts
22-Jan-18 12:08 39.114470 -120.339363 224 12012ft 169kts
22-Jan-18 12:09 39.080596 -120.375294 224 12011ft 169kts
22-Jan-18 12:10 39.045900 -120.412022 223 11331ft 177kts
22-Jan-18 12:11 39.012378 -120.447393 223 11024ft 163kts
22-Jan-18 12:12 38.979384 -120.482180 223 10982ft 167kts
22-Jan-18 12:13 38.945699 -120.517657 223 10991ft 173kts
22-Jan-18 12:14 38.910664 -120.554498 223 10998ft 180kts
22-Jan-18 12:15 38.880513 -120.586167 223 11005ft 182kts
22-Jan-18 12:16 38.846109 -120.622268 223 11007ft 184kts
22-Jan-18 12:17 38.825657 -120.662202 252 10696ft 181kts
22-Jan-18 12:18 38.812099 -120.716723 252 9340ft 189kts
22-Jan-18 12:19 38.799294 -120.772557 252 7953ft 184kts
22-Jan-18 12:20 38.787915 -120.825965 253 6346ft 185kts
22-Jan-18 12:21 38.776641 -120.881456 253 5023ft 178kts
22-Jan-18 12:22 38.765408 -120.937473 253 5007ft 186kts
22-Jan-18 12:23 38.754293 -120.992262 253 5001ft 185kts
22-Jan-18 12:24 38.731386 -121.037813 223 4439ft 181kts
22-Jan-18 12:25 38.702249 -121.075869 223 4008ft 170kts
22-Jan-18 12:26 38.674486 -121.111347 202 4002ft 167kts
22-Jan-18 12:27 38.648880 -121.083327 106 4013ft 170kts
22-Jan-18 12:28 38.639035 -121.032472 107 4006ft 172kts
22-Jan-18 12:29 38.634300 -120.977685 70 4006ft 179kts
22-Jan-18 12:30 38.654924 -120.925483 65 4000ft 181kts
22-Jan-18 12:31 38.675924 -120.873509 64 3977ft 150kts
22-Jan-18 12:32 38.689348 -120.840077 65 3963ft 121kts
22-Jan-18 12:33 38.700954 -120.811272 66 3521ft 92kts
22-Jan-18 12:34 38.711638 -120.784654 65 3055ft 89kts
22-Jan-18 12:35 38.722125 -120.758557 65 2601ft 88kts
22-Jan-18 12:36 38.726734 -120.747551 347 2588ft 14kts
22-Jan-18 12:37 38.726753 -120.748175 238 2588ft 0kts
22-Jan-18 12:38 38.726027 -120.749938 242 2588ft 18kts
22-Jan-18 12:39 38.724355 -120.754953 207 2588ft 5kts

Navigation Log

Ident Type
Flight plan parsing failed, navigation log unavailable